Temp: 12.9°C   Baro: 1008.5mb
  Wind: 6.0mph   Dir: W (271°)
  Rain: 6.4mm (0.0mm/hr)
  Sun: 148W/m2  Humidity: 93%

Historic data

Bath Spa Weather Station Historical Data
Daily Summary for June 08, 2023 Units:  Metric    English   Both
Daily Weekly Monthly Yearly Custom
  High: Low: Average:
Temperature: 25.4 °C 8.7 °C 16.8 °C
Dew Point: 14.7 °C 6.5 °C 10.8 °C
Humidity: 87% 50.8% 70%
Wind Speed: 18.2km/h 2.9km/h 8.5km/h
Wind Gust: 32.2km/h - -
Wind- - ENE
Pressure: 1020.5 hPa 1014.4 hPa -
Precipitation: 0 mm    
Historical Graphs
 
 
Tabular Data for June 08, 2023
Time Temperature Dew Point Pressure Wind Wind Speed Wind Gust Humidity Rainfall Rate (Hourly) solar
00:09 13.3 °C 9.5 °C 1020.2 hPa ENE 7.9 km/h 20.9 km/h 78% 0 mm 0 W/m2
00:14 13.2 °C 9.4 °C 1020.2 hPa East 8.5 km/h 20.9 km/h 78% 0 mm 0 W/m2
00:19 13.1 °C 9.4 °C 1020.2 hPa East 5.8 km/h 17.7 km/h 78% 0 mm 0 W/m2
00:24 12.9 °C 9.2 °C 1020.2 hPa ESE 9.2 km/h 17.7 km/h 78% 0 mm 0 W/m2
00:29 12.7 °C 9.1 °C 1020.2 hPa ESE 6.3 km/h 19.3 km/h 78% 0 mm 0 W/m2
00:34 12.6 °C 8.9 °C 1020.2 hPa East 7.1 km/h 20.9 km/h 78% 0 mm 0 W/m2
00:39 12.4 °C 8.7 °C 1020.2 hPa ESE 7.1 km/h 19.3 km/h 78% 0 mm 0 W/m2
00:44 12.3 °C 8.6 °C 1020.2 hPa East 5.8 km/h 24.1 km/h 78% 0 mm 0 W/m2
00:49 12.2 °C 8.5 °C 1020.2 hPa East 15.8 km/h 25.7 km/h 78% 0 mm 0 W/m2
00:54 12.1 °C 8.4 °C 1020.2 hPa ESE 8.2 km/h 20.9 km/h 78.4% 0 mm 0 W/m2
00:59 11.9 °C 8.4 °C 1020.2 hPa ESE 9.8 km/h 25.7 km/h 79% 0 mm 0 W/m2
01:04 11.8 °C 8.3 °C 1020.2 hPa East 8.4 km/h 19.3 km/h 79% 0 mm 0 W/m2
01:09 11.7 °C 8.4 °C 1020.2 hPa ESE 6.6 km/h 17.7 km/h 79.8% 0 mm 0 W/m2
01:14 11.7 °C 8.3 °C 1020.5 hPa East 10.9 km/h 20.9 km/h 80% 0 mm 0 W/m2
01:19 11.6 °C 8.2 °C 1020.2 hPa ESE 11.9 km/h 27.4 km/h 80% 0 mm 0 W/m2
01:24 11.4 °C 8.2 °C 1020.2 hPa East 11.7 km/h 22.5 km/h 80.2% 0 mm 0 W/m2
01:29 11.3 °C 8.2 °C 1020.2 hPa East 7.7 km/h 17.7 km/h 81% 0 mm 0 W/m2
01:34 11.2 °C 8.1 °C 1020.2 hPa East 3.4 km/h 16.1 km/h 81% 0 mm 0 W/m2
01:39 11.2 °C 8.1 °C 1020.2 hPa East 11.3 km/h 20.9 km/h 81% 0 mm 0 W/m2
01:44 11.1 °C 7.9 °C 1020.2 hPa ESE 9.3 km/h 22.5 km/h 81% 0 mm 0 W/m2
01:49 10.9 °C 7.8 °C 1020.2 hPa SSE 7.1 km/h 19.3 km/h 81.6% 0 mm 0 W/m2
01:54 10.8 °C 7.9 °C 1020.2 hPa ESE 9.7 km/h 22.5 km/h 82% 0 mm 0 W/m2
01:59 10.8 °C 7.9 °C 1020.2 hPa ESE 10.3 km/h 17.7 km/h 82% 0 mm 0 W/m2
02:04 10.7 °C 7.8 °C 1020.2 hPa ESE 9.2 km/h 17.7 km/h 82% 0 mm 0 W/m2
02:09 10.6 °C 7.7 °C 1020.2 hPa SE 3.9 km/h 16.1 km/h 82% 0 mm 0 W/m2
02:14 10.6 °C 7.7 °C 1020.2 hPa ESE 9 km/h 19.3 km/h 82.2% 0 mm 0 W/m2
02:19 10.5 °C 7.7 °C 1020.2 hPa East 8.9 km/h 25.7 km/h 83% 0 mm 0 W/m2
02:24 10.4 °C 7.6 °C 1020.2 hPa East 10.3 km/h 19.3 km/h 83% 0 mm 0 W/m2
02:29 10.3 °C 7.5 °C 1020.2 hPa East 10 km/h 17.7 km/h 83% 0 mm 0 W/m2
02:34 10.2 °C 7.4 °C 1020.2 hPa ESE 6.3 km/h 17.7 km/h 83% 0 mm 0 W/m2
02:39 10.2 °C 7.4 °C 1020.2 hPa SE 6.4 km/h 20.9 km/h 83.2% 0 mm 0 W/m2
02:44 10.1 °C 7.4 °C 1020.2 hPa East 8.5 km/h 22.5 km/h 84% 0 mm 0 W/m2
02:49 10 °C 7.4 °C 1020.2 hPa SE 6.4 km/h 22.5 km/h 84% 0 mm 0 W/m2
02:54 9.9 °C 7.3 °C 1020.2 hPa ESE 8 km/h 14.5 km/h 84% 0 mm 0 W/m2
02:59 9.9 °C 7.3 °C 1020.2 hPa East 6.1 km/h 16.1 km/h 84% 0 mm 0 W/m2
03:04 9.8 °C 7.2 °C 1020.2 hPa ESE 7.1 km/h 20.9 km/h 84% 0 mm 0 W/m2
03:09 9.8 °C 7.2 °C 1020.5 hPa East 7.4 km/h 16.1 km/h 84% 0 mm 0 W/m2
03:14 9.7 °C 7.3 °C 1020.5 hPa ESE 6.8 km/h 20.9 km/h 84.8% 0 mm 0 W/m2
03:19 9.7 °C 7.2 °C 1020.2 hPa ESE 9.2 km/h 17.7 km/h 84.6% 0 mm 0 W/m2
03:24 9.6 °C 7.2 °C 1020.2 hPa East 6.3 km/h 20.9 km/h 85% 0 mm 0 W/m2
03:29 9.6 °C 7.2 °C 1020.2 hPa ESE 4.7 km/h 14.5 km/h 85% 0 mm 0 W/m2
03:34 9.6 °C 7.2 °C 1020.2 hPa ESE 9.7 km/h 17.7 km/h 85% 0 mm 0 W/m2
03:39 9.4 °C 7.1 °C 1020.2 hPa ESE 5.3 km/h 16.1 km/h 85% 0 mm 0 W/m2
03:44 9.4 °C 7 °C 1020.2 hPa East 6 km/h 14.5 km/h 85% 0 mm 0 W/m2
03:49 9.3 °C 6.9 °C 1019.9 hPa East 8 km/h 16.1 km/h 85% 0 mm 0 W/m2
03:54 9.3 °C 6.9 °C 1019.9 hPa East 7.2 km/h 16.1 km/h 85% 0 mm 0 W/m2
03:59 9.2 °C 6.8 °C 1019.9 hPa ESE 6.3 km/h 14.5 km/h 85% 0 mm 0 W/m2
04:04 9.2 °C 6.9 °C 1019.9 hPa ESE 9.7 km/h 20.9 km/h 85.8% 0 mm 0 W/m2
04:09 9.2 °C 7 °C 1019.9 hPa East 6.8 km/h 24.1 km/h 86% 0 mm 0 W/m2
04:14 9.2 °C 6.9 °C 1019.9 hPa ESE 6.3 km/h 24.1 km/h 86% 0 mm 0 W/m2
04:19 9.1 °C 6.9 °C 1019.9 hPa ENE 10 km/h 16.1 km/h 86% 0 mm 0 W/m2
04:24 9.1 °C 6.9 °C 1019.9 hPa East 12.2 km/h 24.1 km/h 86% 0 mm 0 W/m2
04:29 9 °C 6.8 °C 1019.9 hPa East 7.6 km/h 24.1 km/h 86% 0 mm 0 W/m2
04:34 8.9 °C 6.7 °C 1019.9 hPa East 9 km/h 17.7 km/h 86% 0 mm 0 W/m2
04:39 8.9 °C 6.7 °C 1019.9 hPa East 13.8 km/h 22.5 km/h 86% 0 mm 0 W/m2
04:44 8.9 °C 6.7 °C 1019.9 hPa East 9.7 km/h 20.9 km/h 86% 0 mm 0 W/m2
04:49 8.8 °C 6.6 °C 1019.9 hPa ENE 11.9 km/h 27.4 km/h 86% 0 mm 0 W/m2
04:54 8.8 °C 6.6 °C 1019.9 hPa ENE 13.7 km/h 32.2 km/h 86% 0 mm 0 W/m2
04:59 8.7 °C 6.5 °C 1019.9 hPa East 12.1 km/h 19.3 km/h 86% 0 mm 0 W/m2
05:04 8.8 °C 6.6 °C 1019.9 hPa ENE 13.5 km/h 24.1 km/h 86.2% 0 mm 5 W/m2
05:09 8.7 °C 6.7 °C 1020.2 hPa East 4.8 km/h 12.9 km/h 87% 0 mm 5 W/m2
05:14 8.8 °C 6.8 °C 1020.2 hPa ENE 4.3 km/h 16.1 km/h 87% 0 mm 7 W/m2
05:19 8.8 °C 6.8 °C 1020.2 hPa NE 7.7 km/h 20.9 km/h 87% 0 mm 9 W/m2
05:24 8.8 °C 6.8 °C 1019.9 hPa East 7.2 km/h 17.7 km/h 87% 0 mm 11 W/m2
05:29 8.8 °C 6.8 °C 1020.2 hPa East 9 km/h 25.7 km/h 87% 0 mm 14 W/m2
05:34 8.7 °C 6.7 °C 1020.2 hPa East 7.6 km/h 25.7 km/h 87% 0 mm 16 W/m2
05:39 8.8 °C 6.8 °C 1020.2 hPa ESE 3.9 km/h 20.9 km/h 87% 0 mm 19 W/m2
05:44 8.8 °C 6.8 °C 1019.9 hPa East 6.4 km/h 20.9 km/h 87% 0 mm 25 W/m2
05:49 8.8 °C 6.8 °C 1019.9 hPa East 3.7 km/h 20.9 km/h 87% 0 mm 26 W/m2
05:54 8.9 °C 6.9 °C 1019.9 hPa East 8.7 km/h 20.9 km/h 87% 0 mm 28 W/m2
05:59 8.9 °C 6.9 °C 1019.9 hPa NE 9 km/h 20.9 km/h 87% 0 mm 30 W/m2
06:04 8.9 °C 6.9 °C 1019.9 hPa East 4 km/h 17.7 km/h 87% 0 mm 32 W/m2
06:09 9.1 °C 7.1 °C 1019.9 hPa NE 8 km/h 20.9 km/h 87% 0 mm 42 W/m2
06:14 9.1 °C 7.1 °C 1019.9 hPa East 6.6 km/h 25.7 km/h 87% 0 mm 44 W/m2
06:19 9.1 °C 7.1 °C 1019.9 hPa East 5.8 km/h 25.7 km/h 87% 0 mm 51 W/m2
06:24 9.1 °C 7.1 °C 1020.2 hPa ENE 7.9 km/h 22.5 km/h 87% 0 mm 53 W/m2
06:29 9.2 °C 7.1 °C 1019.9 hPa East 8.5 km/h 19.3 km/h 87% 0 mm 54 W/m2
06:34 9.2 °C 7.1 °C 1019.9 hPa ENE 10 km/h 17.7 km/h 87% 0 mm 58 W/m2
06:39 9.3 °C 7.2 °C 1019.9 hPa North 3.9 km/h 12.9 km/h 87% 0 mm 65 W/m2
06:44 9.3 °C 7.2 °C 1019.9 hPa ENE 7.7 km/h 17.7 km/h 87% 0 mm 65 W/m2
06:49 9.3 °C 7.2 °C 1019.9 hPa East 3.9 km/h 17.7 km/h 87% 0 mm 65 W/m2
06:54 9.4 °C 7.3 °C 1020.2 hPa ENE 8 km/h 14.5 km/h 87% 0 mm 83 W/m2
06:59 9.4 °C 7.3 °C 1020.2 hPa ENE 7.4 km/h 20.9 km/h 87% 0 mm 79 W/m2
07:04 9.4 °C 7.3 °C 1019.9 hPa East 6.8 km/h 16.1 km/h 87% 0 mm 90 W/m2
07:09 9.6 °C 7.4 °C 1019.9 hPa ENE 6.6 km/h 16.1 km/h 87% 0 mm 111 W/m2
07:14 9.6 °C 7.5 °C 1019.9 hPa ENE 9.7 km/h 24.1 km/h 86.8% 0 mm 127 W/m2
07:19 9.6 °C 7.4 °C 1019.9 hPa East 5.3 km/h 24.1 km/h 86% 0 mm 128 W/m2
07:24 9.7 °C 7.4 °C 1019.9 hPa NE 9.3 km/h 19.3 km/h 86% 0 mm 149 W/m2
07:29 9.8 °C 7.6 °C 1019.9 hPa ENE 7.1 km/h 14.5 km/h 86% 0 mm 148 W/m2
07:34 9.9 °C 7.7 °C 1019.9 hPa ENE 4.2 km/h 16.1 km/h 86% 0 mm 169 W/m2
07:39 10.1 °C 7.8 °C 1019.9 hPa ESE 6.4 km/h 16.1 km/h 86% 0 mm 285 W/m2
07:44 10.1 °C 7.7 °C 1019.9 hPa SE 6.1 km/h 16.1 km/h 85% 0 mm 281 W/m2
07:49 10.1 °C 7.7 °C 1019.9 hPa ESE 5.8 km/h 14.5 km/h 85% 0 mm 304 W/m2
07:54 10.3 °C 7.9 °C 1019.9 hPa NE 6 km/h 14.5 km/h 85% 0 mm 422 W/m2
07:59 10.7 °C 8.2 °C 1019.9 hPa NNE 6.4 km/h 11.3 km/h 84.6% 0 mm 388 W/m2
08:04 10.8 °C 8.3 °C 1019.9 hPa NNE 7.1 km/h 16.1 km/h 84% 0 mm 272 W/m2
08:09 11.1 °C 8.3 °C 1019.9 hPa NE 4.5 km/h 16.1 km/h 83.2% 0 mm 279 W/m2
08:14 11.2 °C 8.3 °C 1019.9 hPa NE 8 km/h 19.3 km/h 82.6% 0 mm 304 W/m2
08:19 11.2 °C 8.2 °C 1019.5 hPa ENE 5.8 km/h 19.3 km/h 81.8% 0 mm 285 W/m2
08:24 11.3 °C 8.3 °C 1019.5 hPa ENE 5.5 km/h 24.1 km/h 81% 0 mm 422 W/m2
08:29 11.6 °C 8.3 °C 1019.5 hPa ENE 8 km/h 24.1 km/h 80.5% 0 mm 418 W/m2
08:34 11.7 °C 8.4 °C 1019.9 hPa NE 12.4 km/h 17.7 km/h 79.8% 0 mm 454 W/m2
08:39 11.9 °C 8.4 °C 1019.9 hPa East 8.5 km/h 19.3 km/h 79% 0 mm 469 W/m2
08:44 12.1 °C 8.4 °C 1019.5 hPa ENE 4.5 km/h 17.7 km/h 78.4% 0 mm 457 W/m2
08:49 12.2 °C 8.4 °C 1019.5 hPa NE 10 km/h 22.5 km/h 78% 0 mm 452 W/m2
08:54 12.3 °C 8.5 °C 1019.5 hPa ENE 4.8 km/h 17.7 km/h 77.4% 0 mm 461 W/m2
08:59 12.6 °C 8.7 °C 1019.5 hPa NE 8.7 km/h 22.5 km/h 77% 0 mm 473 W/m2
09:04 12.8 °C 8.7 °C 1019.5 hPa NE 7.4 km/h 19.3 km/h 76% 0 mm 487 W/m2
09:09 12.9 °C 8.8 °C 1019.5 hPa ENE 2.9 km/h 12.9 km/h 75.8% 0 mm 499 W/m2
09:14 13.2 °C 8.9 °C 1019.5 hPa East 5.8 km/h 20.9 km/h 75% 0 mm 510 W/m2
09:19 13.4 °C 8.9 °C 1019.5 hPa NE 5.3 km/h 20.9 km/h 74% 0 mm 515 W/m2
09:24 13.8 °C 9.2 °C 1019.2 hPa NE 8.9 km/h 17.7 km/h 73.8% 0 mm 529 W/m2
09:29 13.9 °C 9 °C 1019.2 hPa ESE 4.8 km/h 17.7 km/h 72.6% 0 mm 543 W/m2
09:34 14.1 °C 9.1 °C 1019.2 hPa ESE 7.2 km/h 17.7 km/h 72% 0 mm 554 W/m2
09:39 14.4 °C 9.4 °C 1019.2 hPa ESE 3.5 km/h 11.3 km/h 71.8% 0 mm 566 W/m2
09:44 14.7 °C 9.4 °C 1019.2 hPa ESE 6 km/h 14.5 km/h 71% 0 mm 578 W/m2
09:49 14.8 °C 9.6 °C 1019.2 hPa ENE 5.8 km/h 14.5 km/h 71% 0 mm 591 W/m2
09:54 15 °C 9.7 °C 1019.2 hPa East 10 km/h 25.7 km/h 70.6% 0 mm 598 W/m2
09:59 14.9 °C 9.6 °C 1019.2 hPa ENE 6 km/h 25.7 km/h 70% 0 mm 605 W/m2
10:04 15.1 °C 9.7 °C 1019.2 hPa NE 6.6 km/h 24.1 km/h 70% 0 mm 615 W/m2
10:09 15.2 °C 9.8 °C 1019.2 hPa ESE 7.9 km/h 24.1 km/h 69.8% 0 mm 635 W/m2
10:14 15.3 °C 9.6 °C 1019.2 hPa ESE 7.1 km/h 16.1 km/h 69% 0 mm 643 W/m2
10:19 15.6 °C 9.8 °C 1019.2 hPa NE 4.7 km/h 14.5 km/h 69% 0 mm 659 W/m2
10:24 15.9 °C 10.1 °C 1019.2 hPa NNE 12.2 km/h 24.1 km/h 68.6% 0 mm 666 W/m2
10:29 16 °C 10.1 °C 1018.8 hPa ENE 10 km/h 20.9 km/h 68% 0 mm 675 W/m2
10:34 16.3 °C 10.3 °C 1019.2 hPa ENE 9 km/h 22.5 km/h 67.6% 0 mm 680 W/m2
10:39 16.5 °C 10.6 °C 1018.8 hPa ENE 10.1 km/h 20.9 km/h 67.8% 0 mm 693 W/m2
10:44 16.8 °C 10.8 °C 1018.8 hPa East 10.1 km/h 19.3 km/h 67.6% 0 mm 701 W/m2
10:49 17.1 °C 11.2 °C 1018.8 hPa East 6.3 km/h 20.9 km/h 68% 0 mm 707 W/m2
10:54 16.9 °C 11.2 °C 1018.8 hPa NNE 9.5 km/h 20.9 km/h 69% 0 mm 717 W/m2
10:59 17 °C 11.4 °C 1018.8 hPa ENE 11.1 km/h 25.7 km/h 69.8% 0 mm 724 W/m2
11:04 17.2 °C 11.6 °C 1018.8 hPa ESE 7.6 km/h 16.1 km/h 69.6% 0 mm 731 W/m2
11:09 17.3 °C 11.7 °C 1018.8 hPa East 12.2 km/h 25.7 km/h 69.2% 0 mm 742 W/m2
11:14 17.7 °C 11.8 °C 1018.5 hPa ENE 8 km/h 25.7 km/h 69% 0 mm 749 W/m2
11:19 17.8 °C 11.8 °C 1018.5 hPa East 11.6 km/h 20.9 km/h 68% 0 mm 758 W/m2
11:24 18.1 °C 12.1 °C 1018.5 hPa NE 9.8 km/h 16.1 km/h 68% 0 mm 766 W/m2
11:29 18.4 °C 12.2 °C 1018.5 hPa ENE 9.3 km/h 20.9 km/h 67.2% 0 mm 773 W/m2
11:34 18.6 °C 12.2 °C 1018.5 hPa NE 11.4 km/h 22.5 km/h 66.4% 0 mm 784 W/m2
11:39 18.7 °C 12.2 °C 1018.5 hPa ENE 15.4 km/h 25.7 km/h 66% 0 mm 788 W/m2
11:44 18.8 °C 12.3 °C 1018.5 hPa East 8.5 km/h 25.7 km/h 66% 0 mm 793 W/m2
11:49 18.6 °C 12.2 °C 1018.2 hPa East 12.1 km/h 25.7 km/h 66.4% 0 mm 796 W/m2
11:54 18.7 °C 12.3 °C 1018.2 hPa East 8.2 km/h 20.9 km/h 66.4% 0 mm 800 W/m2
11:59 18.9 °C 12.4 °C 1018.2 hPa East 18.2 km/h 22.5 km/h 66% 0 mm 812 W/m2
12:04 18.9 °C 12.4 °C 1018.2 hPa ENE 6.1 km/h 22.5 km/h 66.2% 0 mm 814 W/m2
12:09 19.1 °C 12.7 °C 1018.2 hPa ENE 13 km/h 24.1 km/h 66.2% 0 mm 823 W/m2
12:14 19.5 °C 12.7 °C 1017.8 hPa East 10.3 km/h 19.3 km/h 65% 0 mm 828 W/m2
12:19 19.8 °C 12.9 °C 1017.8 hPa ENE 7.1 km/h 22.5 km/h 65% 0 mm 830 W/m2
12:24 20 °C 13.2 °C 1017.8 hPa NE 9.7 km/h 24.1 km/h 64.6% 0 mm 838 W/m2
12:29 20.2 °C 13.1 °C 1017.8 hPa East 9 km/h 20.9 km/h 63.6% 0 mm 840 W/m2
12:34 20.3 °C 13.2 °C 1017.8 hPa East 7.7 km/h 24.1 km/h 63.4% 0 mm 842 W/m2
12:39 20.6 °C 13.3 °C 1017.8 hPa East 9 km/h 19.3 km/h 63% 0 mm 842 W/m2
12:44 20.8 °C 13.3 °C 1017.5 hPa ESE 7.6 km/h 27.4 km/h 62.3% 0 mm 847 W/m2
12:49 20.8 °C 13.4 °C 1017.5 hPa NE 5.8 km/h 17.7 km/h 62.6% 0 mm 851 W/m2
12:54 21 °C 13.4 °C 1017.5 hPa NE 8 km/h 17.7 km/h 62% 0 mm 851 W/m2
12:59 21.4 °C 13.7 °C 1017.5 hPa ENE 16.4 km/h 20.9 km/h 61.4% 0 mm 851 W/m2
13:04 21.7 °C 13.8 °C 1017.5 hPa ENE 6 km/h 16.1 km/h 60.8% 0 mm 854 W/m2
13:09 21.7 °C 13.7 °C 1017.2 hPa NE 8.9 km/h 19.3 km/h 60.6% 0 mm 856 W/m2
13:14 21.9 °C 14 °C 1017.2 hPa ENE 8.4 km/h 19.3 km/h 60.8% 0 mm 854 W/m2
13:19 22.3 °C 14.2 °C 1017.2 hPa ENE 6.9 km/h 17.7 km/h 59.8% 0 mm 853 W/m2
13:24 22.4 °C 14 °C 1017.2 hPa East 11.9 km/h 22.5 km/h 59% 0 mm 856 W/m2
13:29 22.2 °C 13.8 °C 1016.8 hPa ESE 15.4 km/h 24.1 km/h 59% 0 mm 853 W/m2
13:34 22.2 °C 13.9 °C 1016.8 hPa ESE 10.6 km/h 29 km/h 59.6% 0 mm 853 W/m2
13:39 22.3 °C 13.9 °C 1016.8 hPa ESE 10.3 km/h 24.1 km/h 59% 0 mm 849 W/m2
13:44 22.6 °C 14.2 °C 1016.8 hPa East 11.3 km/h 22.5 km/h 58.8% 0 mm 846 W/m2
13:49 23.1 °C 14.2 °C 1016.8 hPa ESE 10.8 km/h 29 km/h 57.6% 0 mm 846 W/m2
13:54 23.2 °C 14.2 °C 1016.8 hPa ESE 7.6 km/h 22.5 km/h 57% 0 mm 851 W/m2
13:59 23.2 °C 14.1 °C 1016.8 hPa ENE 8.7 km/h 25.7 km/h 56.6% 0 mm 849 W/m2
14:04 22.8 °C 14.1 °C 1016.8 hPa East 11.9 km/h 20.9 km/h 58.2% 0 mm 846 W/m2
14:09 22.8 °C 14.1 °C 1016.8 hPa ESE 8.2 km/h 22.5 km/h 58% 0 mm 840 W/m2
14:14 23.1 °C 14.2 °C 1016.8 hPa East 7.4 km/h 22.5 km/h 57.4% 0 mm 840 W/m2
14:19 23.7 °C 14.4 °C 1016.5 hPa ENE 12.6 km/h 27.4 km/h 56% 0 mm 838 W/m2
14:24 23.6 °C 14.2 °C 1016.5 hPa NE 5.1 km/h 30.6 km/h 55.8% 0 mm 830 W/m2
14:29 23.7 °C 14.4 °C 1016.8 hPa ENE 10.6 km/h 19.3 km/h 56% 0 mm 833 W/m2
14:34 24.1 °C 14.4 °C 1016.5 hPa NE 13.5 km/h 27.4 km/h 54.8% 0 mm 826 W/m2
14:39 24.1 °C 14.3 °C 1016.5 hPa NE 6.9 km/h 29 km/h 54.6% 0 mm 817 W/m2
14:44 23.9 °C 14.3 °C 1016.5 hPa East 10.3 km/h 20.9 km/h 54.8% 0 mm 812 W/m2
14:49 24 °C 14.4 °C 1016.5 hPa East 9.8 km/h 22.5 km/h 55% 0 mm 812 W/m2
14:54 24 °C 14.4 °C 1016.5 hPa NE 6.1 km/h 17.7 km/h 54.8% 0 mm 803 W/m2
14:59 23.9 °C 14.5 °C 1016.5 hPa East 12.2 km/h 27.4 km/h 55.6% 0 mm 802 W/m2
15:04 24.1 °C 14.3 °C 1016.5 hPa East 13.8 km/h 25.7 km/h 54.2% 0 mm 789 W/m2
15:09 24.2 °C 14.5 °C 1016.1 hPa ENE 9 km/h 19.3 km/h 54.6% 0 mm 786 W/m2
15:14 24.2 °C 14.6 °C 1016.1 hPa East 9.7 km/h 22.5 km/h 55% 0 mm 780 W/m2
15:19 24.3 °C 14.6 °C 1016.1 hPa NE 8.5 km/h 22.5 km/h 54.8% 0 mm 773 W/m2
15:24 24.4 °C 14.5 °C 1016.1 hPa East 8.5 km/h 29 km/h 54% 0 mm 765 W/m2
15:29 24.3 °C 14.4 °C 1016.1 hPa East 10.3 km/h 20.9 km/h 54% 0 mm 756 W/m2
15:34 24.4 °C 14.5 °C 1016.1 hPa ENE 9.8 km/h 22.5 km/h 54% 0 mm 747 W/m2
15:39 24.9 °C 14.6 °C 1016.1 hPa ENE 8.5 km/h 17.7 km/h 53% 0 mm 737 W/m2
15:44 25.1 °C 14.6 °C 1016.1 hPa NE 10 km/h 24.1 km/h 52% 0 mm 735 W/m2
15:49 24.9 °C 14.6 °C 1015.8 hPa NE 6.4 km/h 19.3 km/h 52.6% 0 mm 726 W/m2
15:54 24.8 °C 14.6 °C 1015.8 hPa NE 10.3 km/h 24.1 km/h 53% 0 mm 719 W/m2
15:59 25.1 °C 14.7 °C 1015.8 hPa NE 10.3 km/h 25.7 km/h 52.2% 0 mm 707 W/m2
16:04 25.2 °C 14.6 °C 1015.8 hPa ESE 9 km/h 25.7 km/h 52% 0 mm 698 W/m2
16:09 24.3 °C 14.1 °C 1015.8 hPa ESE 12.2 km/h 22.5 km/h 53% 0 mm 689 W/m2
16:14 23.8 °C 14.2 °C 1015.8 hPa NNE 9.3 km/h 19.3 km/h 55% 0 mm 677 W/m2
16:19 24.2 °C 14.3 °C 1015.5 hPa NE 8.4 km/h 19.3 km/h 54% 0 mm 671 W/m2
16:24 24.7 °C 14.7 °C 1015.5 hPa East 7.6 km/h 14.5 km/h 53.4% 0 mm 666 W/m2
16:29 25.3 °C 14.6 °C 1015.5 hPa East 8.9 km/h 22.5 km/h 51.6% 0 mm 652 W/m2
16:34 25.4 °C 14.5 °C 1015.5 hPa ENE 10.3 km/h 25.7 km/h 51% 0 mm 638 W/m2
16:39 24.9 °C 14.5 °C 1015.5 hPa NNE 6.8 km/h 17.7 km/h 52.2% 0 mm 631 W/m2
16:44 25 °C 14.4 °C 1015.5 hPa East 9.8 km/h 22.5 km/h 51.6% 0 mm 615 W/m2
16:49 25.1 °C 14.4 °C 1015.5 hPa NE 12.6 km/h 27.4 km/h 51.4% 0 mm 601 W/m2
16:54 25.2 °C 14.3 °C 1015.1 hPa East 13.2 km/h 22.5 km/h 51% 0 mm 589 W/m2
16:59 25.1 °C 14.2 °C 1015.1 hPa ENE 7.9 km/h 25.7 km/h 51% 0 mm 589 W/m2
17:04 25.2 °C 14.3 °C 1015.1 hPa ENE 7.4 km/h 22.5 km/h 51% 0 mm 578 W/m2
17:09 25.2 °C 14.2 °C 1015.1 hPa ENE 11.1 km/h 24.1 km/h 50.8% 0 mm 564 W/m2
17:14 25.1 °C 14.3 °C 1015.1 hPa ENE 7.2 km/h 25.7 km/h 51% 0 mm 552 W/m2
17:19 25.1 °C 14.3 °C 1015.1 hPa NE 7.7 km/h 22.5 km/h 51% 0 mm 541 W/m2
17:24 24.9 °C 14.2 °C 1015.1 hPa ENE 9.7 km/h 24.1 km/h 51% 0 mm 534 W/m2
17:29 24.9 °C 14.1 °C 1015.1 hPa ESE 11.1 km/h 20.9 km/h 51% 0 mm 524 W/m2
17:34 25.1 °C 14.3 °C 1015.1 hPa NE 7.6 km/h 22.5 km/h 51% 0 mm 508 W/m2
17:39 25.1 °C 14.2 °C 1014.8 hPa East 11.1 km/h 24.1 km/h 51% 0 mm 496 W/m2
17:44 24.8 °C 13.9 °C 1014.8 hPa ENE 8.4 km/h 20.9 km/h 51% 0 mm 480 W/m2
17:49 24.7 °C 14.1 °C 1014.8 hPa ENE 12.9 km/h 22.5 km/h 51.6% 0 mm 468 W/m2
17:54 24.8 °C 14 °C 1014.8 hPa East 10.3 km/h 19.3 km/h 51.2% 0 mm 454 W/m2
17:59 24.5 °C 14 °C 1014.8 hPa NE 9.2 km/h 24.1 km/h 52% 0 mm 438 W/m2
18:04 24.2 °C 13.9 °C 1014.8 hPa ENE 10.6 km/h 24.1 km/h 52.6% 0 mm 429 W/m2
18:09 24.1 °C 13.9 °C 1014.8 hPa ENE 8.2 km/h 24.1 km/h 53% 0 mm 417 W/m2
18:14 24.1 °C 13.7 °C 1014.8 hPa ENE 9 km/h 24.1 km/h 52.4% 0 mm 399 W/m2
18:19 24.2 °C 13.8 °C 1014.8 hPa ENE 8.4 km/h 19.3 km/h 52.4% 0 mm 388 W/m2
18:24 24.3 °C 13.9 °C 1014.4 hPa NE 10 km/h 17.7 km/h 52.2% 0 mm 376 W/m2
18:29 24.3 °C 13.8 °C 1014.4 hPa ENE 10.8 km/h 24.1 km/h 52% 0 mm 364 W/m2
18:34 24 °C 13.7 °C 1014.4 hPa ENE 10.6 km/h 24.1 km/h 52.8% 0 mm 346 W/m2
18:39 23.8 °C 13.7 °C 1014.4 hPa East 11.3 km/h 22.5 km/h 53.4% 0 mm 336 W/m2
18:44 23.7 °C 13.8 °C 1014.4 hPa ENE 6.9 km/h 20.9 km/h 53.6% 0 mm 322 W/m2
18:49 23.7 °C 13.6 °C 1014.4 hPa NNE 8.7 km/h 20.9 km/h 53% 0 mm 311 W/m2
18:54 23.8 °C 13.6 °C 1014.4 hPa East 10.1 km/h 20.9 km/h 53% 0 mm 297 W/m2
18:59 23.8 °C 13.6 °C 1014.4 hPa NE 11.7 km/h 24.1 km/h 53% 0 mm 285 W/m2
19:04 23.7 °C 13.3 °C 1014.4 hPa NE 10.9 km/h 24.1 km/h 52% 0 mm 272 W/m2
19:09 23.6 °C 13.4 °C 1014.4 hPa NE 6.6 km/h 24.1 km/h 52.6% 0 mm 258 W/m2
19:14 23.4 °C 13.3 °C 1014.4 hPa ENE 12.2 km/h 20.9 km/h 53% 0 mm 246 W/m2
19:19 23.3 °C 13.3 °C 1014.4 hPa ENE 9 km/h 20.9 km/h 53% 0 mm 230 W/m2
19:24 23.2 °C 13 °C 1014.4 hPa East 9.3 km/h 19.3 km/h 52.6% 0 mm 218 W/m2
19:29 23.2 °C 13 °C 1014.4 hPa East 10.6 km/h 22.5 km/h 52.8% 0 mm 202 W/m2
19:34 23.1 °C 13 °C 1014.4 hPa ENE 8.2 km/h 17.7 km/h 53% 0 mm 185 W/m2
19:39 22.9 °C 12.8 °C 1014.4 hPa NE 10.3 km/h 24.1 km/h 53.2% 0 mm 171 W/m2
19:44 22.7 °C 12.8 °C 1014.4 hPa ENE 9.5 km/h 24.1 km/h 54% 0 mm 158 W/m2
19:49 22.6 °C 13.1 °C 1014.4 hPa East 5.3 km/h 17.7 km/h 54.8% 0 mm 144 W/m2
19:54 22.4 °C 12.9 °C 1014.4 hPa ENE 6 km/h 17.7 km/h 55% 0 mm 132 W/m2
19:59 22.4 °C 12.9 °C 1014.4 hPa ENE 6.8 km/h 16.1 km/h 55% 0 mm 121 W/m2
20:04 22.3 °C 12.8 °C 1014.4 hPa East 6.4 km/h 14.5 km/h 55% 0 mm 107 W/m2
20:09 22.3 °C 12.8 °C 1014.4 hPa NNE 7.6 km/h 14.5 km/h 55% 0 mm 95 W/m2
20:14 22.3 °C 12.8 °C 1014.4 hPa ENE 10 km/h 19.3 km/h 55.2% 0 mm 84 W/m2
20:19 22.2 °C 12.9 °C 1014.4 hPa ENE 6.3 km/h 20.9 km/h 55.8% 0 mm 74 W/m2
20:24 21.9 °C 12.7 °C 1014.4 hPa NE 7.2 km/h 20.9 km/h 56% 0 mm 62 W/m2
20:29 21.8 °C 12.6 °C 1014.4 hPa NE 9.5 km/h 19.3 km/h 56% 0 mm 54 W/m2
20:34 21.7 °C 12.7 °C 1014.4 hPa NE 5.8 km/h 16.1 km/h 57% 0 mm 44 W/m2
20:39 21.5 °C 12.6 °C 1014.4 hPa ENE 6.1 km/h 17.7 km/h 56.8% 0 mm 37 W/m2
20:44 21.3 °C 12.4 °C 1014.4 hPa NE 5.6 km/h 19.3 km/h 57% 0 mm 30 W/m2
20:49 21.2 °C 12.3 °C 1014.4 hPa ENE 8 km/h 19.3 km/h 57% 0 mm 21 W/m2
20:54 20.9 °C 12.3 °C 1014.4 hPa NE 4.7 km/h 12.9 km/h 58% 0 mm 18 W/m2
20:59 20.7 °C 12.4 °C 1014.4 hPa NNE 4.8 km/h 14.5 km/h 59% 0 mm 14 W/m2
21:04 20.4 °C 12.4 °C 1014.4 hPa ENE 6 km/h 16.1 km/h 60% 0 mm 12 W/m2
21:09 20.2 °C 12.3 °C 1014.4 hPa NE 6.9 km/h 16.1 km/h 60.6% 0 mm 9 W/m2
21:14 19.9 °C 12.2 °C 1014.4 hPa ENE 8.7 km/h 17.7 km/h 61.2% 0 mm 7 W/m2
21:19 19.7 °C 12.2 °C 1014.8 hPa ENE 6.1 km/h 22.5 km/h 62% 0 mm 5 W/m2
21:24 19.6 °C 12.1 °C 1014.8 hPa NE 6.4 km/h 20.9 km/h 62% 0 mm 0 W/m2
21:29 19.3 °C 12.2 °C 1014.8 hPa NE 7.4 km/h 20.9 km/h 63% 0 mm 0 W/m2
21:34 19.2 °C 12 °C 1014.8 hPa ENE 6.8 km/h 16.1 km/h 63% 0 mm 0 W/m2
21:39 19.2 °C 11.9 °C 1014.8 hPa ENE 5.6 km/h 16.1 km/h 63% 0 mm 0 W/m2
21:44 19 °C 11.8 °C 1014.8 hPa NE 6.4 km/h 16.1 km/h 63% 0 mm 0 W/m2
21:49 18.7 °C 11.7 °C 1015.1 hPa NE 5.1 km/h 19.3 km/h 63.8% 0 mm 0 W/m2
21:54 18.6 °C 11.8 °C 1015.1 hPa NE 7.9 km/h 19.3 km/h 64.8% 0 mm 0 W/m2
21:59 18.3 °C 11.8 °C 1015.1 hPa ENE 6.1 km/h 24.1 km/h 66.2% 0 mm 0 W/m2
22:04 18.2 °C 12.1 °C 1015.1 hPa ENE 9.7 km/h 27.4 km/h 67.6% 0 mm 0 W/m2
22:09 17.9 °C 12.1 °C 1015.1 hPa ENE 9.3 km/h 19.3 km/h 69% 0 mm 0 W/m2
22:14 17.7 °C 12.2 °C 1015.1 hPa NE 9.2 km/h 29 km/h 70.2% 0 mm 0 W/m2
22:19 17.5 °C 12.2 °C 1015.1 hPa NE 11.6 km/h 24.1 km/h 71% 0 mm 0 W/m2
22:24 17.3 °C 12.2 °C 1015.1 hPa ENE 10.3 km/h 29 km/h 71.8% 0 mm 0 W/m2
22:29 17.2 °C 12.1 °C 1015.1 hPa ENE 8.9 km/h 30.6 km/h 72% 0 mm 0 W/m2
22:34 17 °C 12.1 °C 1015.1 hPa NE 13.8 km/h 25.7 km/h 73% 0 mm 0 W/m2
22:39 16.8 °C 11.9 °C 1015.1 hPa NE 9.5 km/h 27.4 km/h 73% 0 mm 0 W/m2
22:44 16.7 °C 11.9 °C 1015.1 hPa NE 13.5 km/h 20.9 km/h 73.6% 0 mm 0 W/m2
22:49 16.4 °C 11.8 °C 1015.1 hPa East 7.9 km/h 22.5 km/h 74% 0 mm 0 W/m2
22:54 16.3 °C 11.7 °C 1015.1 hPa ENE 11.9 km/h 22.5 km/h 74% 0 mm 0 W/m2
22:59 16.2 °C 11.7 °C 1015.1 hPa NE 9.3 km/h 22.5 km/h 74.4% 0 mm 0 W/m2
23:04 16.1 °C 11.7 °C 1015.1 hPa ENE 10.9 km/h 24.1 km/h 75% 0 mm 0 W/m2
23:09 15.9 °C 11.6 °C 1015.1 hPa NE 9.3 km/h 24.1 km/h 75% 0 mm 0 W/m2
23:14 15.8 °C 11.4 °C 1015.1 hPa ENE 10.3 km/h 25.7 km/h 75% 0 mm 0 W/m2
23:19 15.7 °C 11.4 °C 1015.1 hPa ENE 9.3 km/h 27.4 km/h 75.4% 0 mm 0 W/m2
23:24 15.6 °C 11.4 °C 1015.1 hPa ENE 7.1 km/h 27.4 km/h 76% 0 mm 0 W/m2
23:29 15.4 °C 11.2 °C 1015.1 hPa ENE 8.9 km/h 20.9 km/h 76% 0 mm 0 W/m2
23:34 15.3 °C 11.1 °C 1015.1 hPa NE 10 km/h 17.7 km/h 76% 0 mm 0 W/m2
23:39 15.2 °C 11 °C 1015.1 hPa NE 7.2 km/h 22.5 km/h 76.4% 0 mm 0 W/m2
23:44 15 °C 11 °C 1015.1 hPa ENE 7.9 km/h 17.7 km/h 76.8% 0 mm 0 W/m2
23:49 14.8 °C 10.8 °C 1015.1 hPa East 9 km/h 29 km/h 76.6% 0 mm 0 W/m2
23:54 14.8 °C 10.8 °C 1015.1 hPa ENE 11.6 km/h 27.4 km/h 77% 0 mm 0 W/m2
23:59 14.7 °C 10.7 °C 1015.1 hPa ENE 10 km/h 29 km/h 77% 0 mm 0 W/m2
Bath Spa Weather
Compliments of Weather Underground - 2 mb